createdAt,value
2018-06-24T00:00:00.395Z,1022.71
2018-06-24T00:01:09.259Z,1022.65
2018-06-24T00:02:18.393Z,1022.64
2018-06-24T00:03:27.249Z,1022.64
2018-06-24T00:04:36.107Z,1022.6
2018-06-24T00:05:44.968Z,1022.61
2018-06-24T00:06:54.106Z,1022.58
2018-06-24T00:08:02.962Z,1022.58
2018-06-24T00:09:12.104Z,1022.56
2018-06-24T00:10:21.115Z,1022.57
2018-06-24T00:11:29.973Z,1022.56
2018-06-24T00:12:39.115Z,1022.56
2018-06-24T00:13:48.011Z,1022.54
2018-06-24T00:14:57.203Z,1022.55
2018-06-24T00:16:06.119Z,1022.56
2018-06-24T00:17:15.258Z,1022.51
2018-06-24T00:18:24.117Z,1022.53
2018-06-24T00:19:32.973Z,1022.55
2018-06-24T00:20:41.832Z,1022.56
2018-06-24T00:21:51.304Z,1022.47
2018-06-24T00:23:00.162Z,1022.53
2018-06-24T00:24:09.017Z,1022.55
2018-06-24T00:25:18.150Z,1022.49
2018-06-24T00:26:27.011Z,1022.47
2018-06-24T00:27:36.021Z,1022.44
2018-06-24T00:28:44.881Z,1022.41
2018-06-24T00:29:53.737Z,1022.43
2018-06-24T00:31:02.594Z,1022.42
2018-06-24T00:32:11.729Z,1022.41
2018-06-24T00:33:20.739Z,1022.41
2018-06-24T00:34:29.595Z,1022.44
2018-06-24T00:35:38.452Z,1022.41
2018-06-24T00:36:47.309Z,1022.41
2018-06-24T00:37:56.446Z,1022.38
2018-06-24T00:39:05.403Z,1022.34
2018-06-24T00:40:14.261Z,1022.32
2018-06-24T00:41:23.119Z,1022.3
2018-06-24T00:42:31.982Z,1022.29
2018-06-24T00:43:40.840Z,1022.3
2018-06-24T00:44:50.046Z,1022.29
2018-06-24T00:45:59.180Z,1022.32
2018-06-24T00:47:08.060Z,1022.34
2018-06-24T00:48:16.901Z,1022.33
2018-06-24T00:49:26.040Z,1022.31
2018-06-24T00:50:35.044Z,1022.26
2018-06-24T00:51:44.179Z,1022.29
2018-06-24T00:52:53.310Z,1022.32
2018-06-24T00:54:02.164Z,1022.3
2018-06-24T00:55:11.026Z,1022.26
2018-06-24T00:56:19.982Z,1022.27
2018-06-24T00:57:28.843Z,1022.26
2018-06-24T00:58:37.700Z,1022.28
2018-06-24T00:59:46.848Z,1022.29
2018-06-24T01:00:55.706Z,1022.27
2018-06-24T01:02:04.921Z,1022.22
2018-06-24T01:03:13.777Z,1022.2
2018-06-24T01:04:22.640Z,1022.22
2018-06-24T01:05:31.496Z,1022.24
2018-06-24T01:06:40.901Z,1022.25
2018-06-24T01:07:49.760Z,1022.26
2018-06-24T01:08:58.619Z,1022.22
2018-06-24T01:10:07.475Z,1022.23
2018-06-24T01:11:16.334Z,1022.22
2018-06-24T01:12:25.191Z,1022.24
2018-06-24T01:13:34.049Z,1022.21
2018-06-24T01:14:42.909Z,1022.23
2018-06-24T01:15:52.317Z,1022.25
2018-06-24T01:17:01.178Z,1022.23
2018-06-24T01:18:10.041Z,1022.32
2018-06-24T01:19:19.224Z,1022.28
2018-06-24T01:20:28.080Z,1022.31
2018-06-24T01:21:37.494Z,1022.32
2018-06-24T01:22:46.351Z,1022.34
2018-06-24T01:23:55.208Z,1022.32
2018-06-24T01:25:04.417Z,1022.33
2018-06-24T01:26:13.552Z,1022.33
2018-06-24T01:27:22.409Z,1022.31
2018-06-24T01:28:31.268Z,1022.32
2018-06-24T01:29:40.402Z,1022.28
2018-06-24T01:30:50.168Z,1022.24
2018-06-24T01:31:59.027Z,1022.24
2018-06-24T01:33:07.886Z,1022.25
2018-06-24T01:34:16.745Z,1022.26
2018-06-24T01:35:25.602Z,1022.24
2018-06-24T01:36:34.558Z,1022.25
2018-06-24T01:37:43.419Z,1022.2
2018-06-24T01:38:52.285Z,1022.18
2018-06-24T01:40:01.419Z,1022.15
2018-06-24T01:41:10.840Z,1022.17
2018-06-24T01:42:19.981Z,1022.17
2018-06-24T01:43:29.115Z,1022.21
2018-06-24T01:44:37.972Z,1022.18
2018-06-24T01:45:46.832Z,1022.12
2018-06-24T01:46:55.691Z,1022.08
2018-06-24T01:48:04.985Z,1022.08
2018-06-24T01:49:13.843Z,1022.06
2018-06-24T01:50:22.700Z,1022.06
2018-06-24T01:51:31.558Z,1022.07
2018-06-24T01:52:40.990Z,1022.08
2018-06-24T01:53:50.272Z,1022.06
2018-06-24T01:54:59.410Z,1022.09
2018-06-24T01:56:08.545Z,1022.04
2018-06-24T01:57:17.408Z,1022.07
2018-06-24T01:58:26.819Z,1022.04
2018-06-24T01:59:36.011Z,1022.02
2018-06-24T02:00:45.146Z,1022.01
2018-06-24T02:01:54.005Z,1021.96
2018-06-24T02:03:03.140Z,1021.95
2018-06-24T02:04:11.999Z,1021.96
2018-06-24T02:05:20.857Z,1021.96
2018-06-24T02:06:29.717Z,1021.98
2018-06-24T02:07:38.580Z,1021.94
2018-06-24T02:08:47.436Z,1021.97
2018-06-24T02:09:56.294Z,1021.93
2018-06-24T02:11:05.501Z,1021.93
2018-06-24T02:12:14.358Z,1021.94
2018-06-24T02:13:23.217Z,1021.93
2018-06-24T02:14:32.080Z,1021.9
2018-06-24T02:15:40.931Z,1021.87
2018-06-24T02:16:50.116Z,1021.91
2018-06-24T02:17:58.974Z,1021.81
2018-06-24T02:19:07.835Z,1021.84
2018-06-24T02:20:17.249Z,1021.81
2018-06-24T02:21:26.109Z,1021.8
2018-06-24T02:22:34.966Z,1021.83
2018-06-24T02:23:43.825Z,1021.85
2018-06-24T02:24:52.959Z,1021.82
2018-06-24T02:26:02.098Z,1021.85
2018-06-24T02:27:11.233Z,1021.88
2018-06-24T02:28:20.139Z,1021.84
2018-06-24T02:29:29.277Z,1021.82
2018-06-24T02:30:38.134Z,1021.83
2018-06-24T02:31:47.599Z,1021.8
2018-06-24T02:32:56.458Z,1021.8
2018-06-24T02:34:05.320Z,1021.78
2018-06-24T02:35:14.463Z,1021.83
2018-06-24T02:36:23.877Z,1021.86
2018-06-24T02:37:32.747Z,1021.82
2018-06-24T02:38:41.605Z,1021.85
2018-06-24T02:39:51.403Z,1021.84
2018-06-24T02:41:00.552Z,1021.81
2018-06-24T02:42:09.968Z,1021.76
2018-06-24T02:43:19.107Z,1021.73
2018-06-24T02:44:28.522Z,1021.74
2018-06-24T02:45:38.101Z,1021.73
2018-06-24T02:46:46.969Z,1021.74
2018-06-24T02:47:56.103Z,1021.71
2018-06-24T02:49:05.241Z,1021.72
2018-06-24T02:50:14.094Z,1021.69
2018-06-24T02:51:23.205Z,1021.71
2018-06-24T02:52:32.062Z,1021.67
2018-06-24T02:53:40.948Z,1021.72
2018-06-24T02:54:50.155Z,1021.65
2018-06-24T02:55:59.577Z,1021.68
2018-06-24T02:57:08.485Z,1021.68
2018-06-24T02:58:17.345Z,1021.65
2018-06-24T02:59:26.482Z,1021.62
2018-06-24T03:00:35.356Z,1021.66
2018-06-24T03:01:44.489Z,1021.64
2018-06-24T03:02:53.724Z,1021.63
2018-06-24T03:04:02.895Z,1021.64
2018-06-24T03:05:12.035Z,1021.65
2018-06-24T03:06:21.169Z,1021.67
2018-06-24T03:07:30.029Z,1021.66
2018-06-24T03:08:39.267Z,1021.68
2018-06-24T03:09:48.403Z,1021.69
2018-06-24T03:10:57.309Z,1021.66
2018-06-24T03:12:06.461Z,1021.67
2018-06-24T03:13:15.319Z,1021.66
2018-06-24T03:14:24.842Z,1021.66
2018-06-24T03:15:34.255Z,1021.65
2018-06-24T03:16:43.395Z,1021.68
2018-06-24T03:17:52.602Z,1021.64
2018-06-24T03:19:01.741Z,1021.64
2018-06-24T03:20:10.704Z,1021.75
2018-06-24T03:21:19.845Z,1021.7
2018-06-24T03:22:28.990Z,1021.75
2018-06-24T03:23:37.848Z,1021.69
2018-06-24T03:24:46.706Z,1021.73
2018-06-24T03:25:56.189Z,1021.69
2018-06-24T03:27:05.324Z,1021.62
2018-06-24T03:28:14.469Z,1021.64
2018-06-24T03:29:23.324Z,1021.59
2018-06-24T03:30:32.183Z,1021.65
2018-06-24T03:31:41.091Z,1021.57
2018-06-24T03:32:50.504Z,1021.6
2018-06-24T03:33:59.366Z,1021.63
2018-06-24T03:35:08.225Z,1021.63
2018-06-24T03:36:17.095Z,1021.63
2018-06-24T03:37:26.106Z,1021.58
2018-06-24T03:38:35.241Z,1021.61
2018-06-24T03:39:44.093Z,1021.6
2018-06-24T03:40:52.950Z,1021.58
2018-06-24T03:42:01.810Z,1021.63
2018-06-24T03:43:10.666Z,1021.61
2018-06-24T03:44:19.523Z,1021.59
2018-06-24T03:45:28.383Z,1021.55
2018-06-24T03:46:37.519Z,1021.58
2018-06-24T03:47:46.373Z,1021.59
2018-06-24T03:48:55.231Z,1021.59
2018-06-24T03:50:04.366Z,1021.61
2018-06-24T03:51:13.225Z,1021.62
2018-06-24T03:52:22.083Z,1021.59
2018-06-24T03:53:30.940Z,1021.63
2018-06-24T03:54:40.148Z,1021.63
2018-06-24T03:55:49.291Z,1021.61
2018-06-24T03:56:58.149Z,1021.62
2018-06-24T03:58:07.075Z,1021.65
2018-06-24T03:59:16.418Z,1021.64
2018-06-24T04:00:25.377Z,1021.63
2018-06-24T04:01:34.790Z,1021.68
2018-06-24T04:02:43.648Z,1021.67
2018-06-24T04:03:52.508Z,1021.66
2018-06-24T04:05:01.368Z,1021.68
2018-06-24T04:06:10.327Z,1021.67
2018-06-24T04:07:19.185Z,1021.69
2018-06-24T04:08:28.045Z,1021.69
2018-06-24T04:09:36.904Z,1021.6
2018-06-24T04:10:45.762Z,1021.65
2018-06-24T04:11:54.670Z,1021.66
2018-06-24T04:13:03.527Z,1021.67
2018-06-24T04:14:12.384Z,1021.69
2018-06-24T04:15:21.241Z,1021.64
2018-06-24T04:16:30.097Z,1021.66
2018-06-24T04:17:39.106Z,1021.68
2018-06-24T04:18:48.244Z,1021.67
2018-06-24T04:19:57.108Z,1021.68
2018-06-24T04:21:05.963Z,1021.65
2018-06-24T04:22:14.823Z,1021.66
2018-06-24T04:23:23.929Z,1021.62
2018-06-24T04:24:32.788Z,1021.62
2018-06-24T04:25:41.659Z,1021.63
2018-06-24T04:26:50.804Z,1021.62
2018-06-24T04:27:59.656Z,1021.62
2018-06-24T04:29:08.514Z,1021.59
2018-06-24T04:30:17.374Z,1021.58
2018-06-24T04:31:26.236Z,1021.62
2018-06-24T04:32:35.094Z,1021.61
2018-06-24T04:33:43.951Z,1021.61
2018-06-24T04:34:52.959Z,1021.59
2018-06-24T04:36:02.369Z,1021.59
2018-06-24T04:37:11.224Z,1021.49
2018-06-24T04:38:20.368Z,1021.53
2018-06-24T04:39:29.223Z,1021.57
2018-06-24T04:40:38.182Z,1021.57
2018-06-24T04:41:47.041Z,1021.58
2018-06-24T04:42:56.183Z,1021.6
2018-06-24T04:44:05.312Z,1021.59
2018-06-24T04:45:14.173Z,1021.56
2018-06-24T04:46:23.031Z,1021.53
2018-06-24T04:47:31.892Z,1021.52
2018-06-24T04:48:40.757Z,1021.51
2018-06-24T04:49:49.897Z,1021.56
2018-06-24T04:50:58.754Z,1021.6
2018-06-24T04:52:07.713Z,1021.63
2018-06-24T04:53:16.855Z,1021.67
2018-06-24T04:54:25.715Z,1021.63
2018-06-24T04:55:34.574Z,1021.71
2018-06-24T04:56:43.714Z,1021.7
2018-06-24T04:57:52.573Z,1021.71
2018-06-24T04:59:01.713Z,1021.72
2018-06-24T05:00:10.569Z,1021.77
2018-06-24T05:01:19.703Z,1021.78
2018-06-24T05:02:28.562Z,1021.75
2018-06-24T05:03:37.696Z,1021.72
2018-06-24T05:05:18.611Z,1021.72
2018-06-24T05:06:28.392Z,1021.72
2018-06-24T05:07:37.867Z,1021.77
2018-06-24T05:08:46.876Z,1021.77
2018-06-24T05:09:56.011Z,1021.76
2018-06-24T05:11:04.867Z,1021.77
2018-06-24T05:12:13.729Z,1021.78
2018-06-24T05:13:22.586Z,1021.79
2018-06-24T05:14:31.596Z,1021.78
2018-06-24T05:15:41.007Z,1021.72
2018-06-24T05:16:49.866Z,1021.74
2018-06-24T05:17:59.001Z,1021.74
2018-06-24T05:19:08.139Z,1021.71
2018-06-24T05:20:17.050Z,1021.74
2018-06-24T05:21:25.913Z,1021.77
2018-06-24T05:22:34.767Z,1021.74
2018-06-24T05:23:43.626Z,1021.74
2018-06-24T05:24:52.769Z,1021.78
2018-06-24T05:26:01.733Z,1021.75
2018-06-24T05:27:10.592Z,1021.78
2018-06-24T05:28:19.451Z,1021.81
2018-06-24T05:29:28.310Z,1021.8
2018-06-24T05:30:37.169Z,1021.75
2018-06-24T05:31:46.177Z,1021.71
2018-06-24T05:32:55.037Z,1021.73
2018-06-24T05:34:03.897Z,1021.74
2018-06-24T05:35:12.755Z,1021.76
2018-06-24T05:36:21.612Z,1021.73
2018-06-24T05:37:30.576Z,1021.74
2018-06-24T05:38:39.429Z,1021.8
2018-06-24T05:39:48.284Z,1021.79
2018-06-24T05:40:57.141Z,1021.8
2018-06-24T05:42:06.285Z,1021.78
2018-06-24T05:43:15.431Z,1021.78
2018-06-24T05:44:24.275Z,1021.78
2018-06-24T05:45:33.134Z,1021.79
2018-06-24T05:46:42.271Z,1021.78
2018-06-24T05:47:51.131Z,1021.8
2018-06-24T05:48:59.987Z,1021.71
2018-06-24T05:50:09.122Z,1021.74
2018-06-24T05:51:17.985Z,1021.73
2018-06-24T05:52:26.845Z,1021.75
2018-06-24T05:53:35.698Z,1021.76
2018-06-24T05:54:44.984Z,1021.78
2018-06-24T05:55:53.841Z,1021.81
2018-06-24T05:57:02.702Z,1021.8
2018-06-24T05:58:11.560Z,1021.76
2018-06-24T05:59:20.419Z,1021.79
2018-06-24T06:00:29.279Z,1021.76
2018-06-24T06:01:38.416Z,1021.82
2018-06-24T06:02:47.333Z,1021.83
2018-06-24T06:03:56.476Z,1021.84
2018-06-24T06:05:05.613Z,1021.88
2018-06-24T06:06:14.849Z,1021.89
2018-06-24T06:07:23.713Z,1021.81
2018-06-24T06:08:32.843Z,1021.86
2018-06-24T06:09:41.979Z,1021.85
2018-06-24T06:10:50.842Z,1021.9
2018-06-24T06:12:00.050Z,1021.91
2018-06-24T06:13:08.910Z,1021.87
2018-06-24T06:14:17.766Z,1021.89
2018-06-24T06:15:26.623Z,1021.83
2018-06-24T06:16:35.480Z,1021.81
2018-06-24T06:17:44.390Z,1021.82
2018-06-24T06:18:53.252Z,1021.82
2018-06-24T06:20:02.112Z,1021.85
2018-06-24T06:21:11.252Z,1021.93
2018-06-24T06:22:20.121Z,1021.89
2018-06-24T06:23:29.131Z,1021.86
2018-06-24T06:24:37.997Z,1021.85
2018-06-24T06:25:46.857Z,1021.9
2018-06-24T06:26:55.719Z,1021.92
2018-06-24T06:28:04.859Z,1021.91
2018-06-24T06:29:13.719Z,1021.89
2018-06-24T06:30:22.621Z,1021.86
2018-06-24T06:31:31.443Z,1021.92
2018-06-24T06:32:40.299Z,1021.9
2018-06-24T06:33:49.161Z,1021.9
2018-06-24T06:34:58.121Z,1021.96
2018-06-24T06:36:06.982Z,1021.98
2018-06-24T06:37:15.841Z,1021.94
2018-06-24T06:38:24.975Z,1021.93
2018-06-24T06:39:34.118Z,1021.96
2018-06-24T06:40:42.970Z,1021.98
2018-06-24T06:41:51.828Z,1021.93
2018-06-24T06:43:00.689Z,1021.92
2018-06-24T06:44:09.555Z,1021.96
2018-06-24T06:45:18.609Z,1021.98
2018-06-24T06:46:28.337Z,1022.04
2018-06-24T06:47:37.747Z,1022.07
2018-06-24T06:48:46.607Z,1022.05
2018-06-24T06:49:55.468Z,1022.02
2018-06-24T06:51:04.385Z,1022.03
2018-06-24T06:52:13.734Z,1022.05
2018-06-24T06:53:22.600Z,1022.05
2018-06-24T06:54:31.470Z,1022.09
2018-06-24T06:55:40.600Z,1022.03
2018-06-24T06:56:49.743Z,1022.07
2018-06-24T06:57:58.655Z,1022.07
2018-06-24T06:59:07.516Z,1022.09
2018-06-24T07:00:16.442Z,1022.14
2018-06-24T07:01:25.705Z,1022.07
2018-06-24T07:02:34.571Z,1022.04
2018-06-24T07:03:43.755Z,1022.06
2018-06-24T07:04:53.183Z,1022
2018-06-24T07:06:02.611Z,1022.06
2018-06-24T07:07:11.750Z,1022.04
2018-06-24T07:08:20.609Z,1021.98
2018-06-24T07:09:29.468Z,1021.98
2018-06-24T07:10:38.333Z,1022.07
2018-06-24T07:11:47.480Z,1022.04
2018-06-24T07:12:56.673Z,1022.07
2018-06-24T07:14:06.219Z,1022.11
2018-06-24T07:15:15.079Z,1022.13
2018-06-24T07:16:23.942Z,1022.04
2018-06-24T07:17:33.082Z,1022.08
2018-06-24T07:18:41.943Z,1022.07
2018-06-24T07:19:50.811Z,1022.13
2018-06-24T07:20:59.669Z,1022.12
2018-06-24T07:22:08.589Z,1022.12
2018-06-24T07:23:17.396Z,1022.14
2018-06-24T07:24:26.254Z,1022.1
2018-06-24T07:25:35.117Z,1022.1
2018-06-24T07:26:44.638Z,1022.07
2018-06-24T07:27:53.496Z,1022.12
2018-06-24T07:29:02.357Z,1022.15
2018-06-24T07:30:11.218Z,1022.18
2018-06-24T07:31:20.081Z,1022.17
2018-06-24T07:32:29.093Z,1022.19
2018-06-24T07:33:38.632Z,1022.15
2018-06-24T07:34:48.596Z,1022.13
2018-06-24T07:35:57.733Z,1022.08
2018-06-24T07:37:06.594Z,1022.1
2018-06-24T07:38:15.506Z,1022.08
2018-06-24T07:39:24.367Z,1022.13
2018-06-24T07:40:33.795Z,1022.08
2018-06-24T07:41:42.646Z,1022.1
2018-06-24T07:42:51.507Z,1022.05
2018-06-24T07:44:00.743Z,1022.05
2018-06-24T07:45:09.605Z,1022.06
2018-06-24T07:46:18.466Z,1022.08
2018-06-24T07:47:27.327Z,1022.09
2018-06-24T07:48:36.462Z,1022.12
2018-06-24T07:49:45.373Z,1022.11
2018-06-24T07:50:54.238Z,1022.15
2018-06-24T07:52:03.099Z,1022.11
2018-06-24T07:53:11.965Z,1022.06
2018-06-24T07:54:20.825Z,1022.09
2018-06-24T07:55:29.961Z,1022.09
2018-06-24T07:56:38.824Z,1022.08
2018-06-24T07:57:47.687Z,1022.11
2018-06-24T07:58:56.823Z,1022.08
2018-06-24T08:00:05.959Z,1022.09
2018-06-24T08:01:14.870Z,1022.17
2018-06-24T08:02:23.746Z,1022.17
2018-06-24T08:03:32.604Z,1022.21
2018-06-24T08:04:41.468Z,1022.24
2018-06-24T08:05:50.609Z,1022.21
2018-06-24T08:06:59.514Z,1022.22
2018-06-24T08:08:08.373Z,1022.21
2018-06-24T08:09:17.231Z,1022.25
2018-06-24T08:10:26.091Z,1022.19
2018-06-24T08:11:34.952Z,1022.21
2018-06-24T08:12:44.240Z,1022.17
2018-06-24T08:13:53.102Z,1022.24
2018-06-24T08:15:01.962Z,1022.2
2018-06-24T08:16:11.385Z,1022.24
2018-06-24T08:17:20.246Z,1022.2
2018-06-24T08:18:29.459Z,1022.21
2018-06-24T08:19:38.317Z,1022.18
2018-06-24T08:20:47.179Z,1022.24
2018-06-24T08:21:56.322Z,1022.17
2018-06-24T08:23:05.183Z,1022.17
2018-06-24T08:24:14.045Z,1022.1
2018-06-24T08:25:23.187Z,1022.13
2018-06-24T08:26:32.049Z,1022.14
2018-06-24T08:27:40.908Z,1022.2
2018-06-24T08:28:49.768Z,1022.15
2018-06-24T08:29:58.628Z,1022.1
2018-06-24T08:31:07.766Z,1022.1
2018-06-24T08:32:16.904Z,1022.15
2018-06-24T08:33:25.768Z,1022.08
2018-06-24T08:34:34.904Z,1022.1
2018-06-24T08:35:43.867Z,1022.07
2018-06-24T08:36:52.728Z,1022.07
2018-06-24T08:38:01.589Z,1022.04
2018-06-24T08:39:10.457Z,1022.08
2018-06-24T08:40:19.594Z,1022.02
2018-06-24T08:41:28.737Z,1021.97
2018-06-24T08:42:37.600Z,1022
2018-06-24T08:43:46.461Z,1021.95
2018-06-24T08:44:55.319Z,1022.02
2018-06-24T08:46:04.183Z,1022
2018-06-24T08:47:13.215Z,1021.96
2018-06-24T08:48:23.295Z,1021.98
2018-06-24T08:49:32.681Z,1021.94
2018-06-24T08:50:41.543Z,1021.95
2018-06-24T08:51:50.684Z,1021.99
2018-06-24T08:52:59.547Z,1022.01
2018-06-24T08:54:08.407Z,1022
2018-06-24T08:55:17.559Z,1021.95
2018-06-24T08:56:26.698Z,1021.97
2018-06-24T08:57:35.562Z,1021.94
2018-06-24T08:58:44.776Z,1021.96
2018-06-24T08:59:53.639Z,1021.97
2018-06-24T09:01:02.797Z,1021.98
2018-06-24T09:02:11.656Z,1022.02
2018-06-24T09:03:20.516Z,1021.99
2018-06-24T09:04:29.754Z,1022.01
2018-06-24T09:05:38.615Z,1022.03
2018-06-24T09:06:47.756Z,1022
2018-06-24T09:07:56.673Z,1022
2018-06-24T09:09:05.851Z,1022.03
2018-06-24T09:10:14.989Z,1022.04
2018-06-24T09:11:23.849Z,1021.99
2018-06-24T09:12:32.713Z,1022.06
2018-06-24T09:13:41.579Z,1021.99
2018-06-24T09:14:50.457Z,1022
2018-06-24T09:15:59.801Z,1022.06
2018-06-24T09:17:08.956Z,1022.08
2018-06-24T09:18:17.822Z,1022.19
2018-06-24T09:19:26.965Z,1022.17
2018-06-24T09:20:35.831Z,1022.07
2018-06-24T09:21:45.043Z,1022.11
2018-06-24T09:22:53.902Z,1022.04
2018-06-24T09:24:02.764Z,1022.06
2018-06-24T09:25:11.632Z,1022.12
2018-06-24T09:26:20.490Z,1022.11
2018-06-24T09:27:29.399Z,1022.08
2018-06-24T09:28:38.559Z,1022.09
2018-06-24T09:29:47.689Z,1022.08
2018-06-24T09:30:56.579Z,1022.06
2018-06-24T09:32:05.696Z,1022.09
2018-06-24T09:33:14.906Z,1022.01
2018-06-24T09:34:23.767Z,1022.05
2018-06-24T09:35:32.628Z,1022.05
2018-06-24T09:36:41.488Z,1022
2018-06-24T09:37:50.348Z,1022
2018-06-24T09:38:59.309Z,1022.02
2018-06-24T09:40:08.172Z,1022.09
2018-06-24T09:41:17.583Z,1022.03
2018-06-24T09:42:26.446Z,1022.09
2018-06-24T09:43:35.307Z,1022.07
2018-06-24T09:44:44.217Z,1022.07
2018-06-24T09:45:53.077Z,1022.06
2018-06-24T09:47:02.218Z,1022.11
2018-06-24T09:48:11.363Z,1022.05
2018-06-24T09:49:20.524Z,1022.08
2018-06-24T09:50:29.809Z,1022.02
2018-06-24T09:51:38.672Z,1022
2018-06-24T09:52:47.836Z,1022.02
2018-06-24T09:53:56.674Z,1022.12
2018-06-24T09:55:05.536Z,1022.09
2018-06-24T09:56:14.512Z,1022.21
2018-06-24T09:57:23.375Z,1022.08
2018-06-24T09:58:32.244Z,1022.15
2018-06-24T09:59:41.098Z,1022.11
2018-06-24T10:00:50.787Z,1022.12
2018-06-24T10:01:59.649Z,1022.16
2018-06-24T10:03:08.511Z,1022.01
2018-06-24T10:04:17.651Z,1022.07
2018-06-24T10:05:26.516Z,1022.1
2018-06-24T10:06:35.382Z,1022.09
2018-06-24T10:07:44.628Z,1022.14
2018-06-24T10:08:53.490Z,1022.08
2018-06-24T10:10:02.358Z,1022.1
2018-06-24T10:11:11.522Z,1022.08
2018-06-24T10:12:20.727Z,1022.09
2018-06-24T10:13:29.878Z,1022.09
2018-06-24T10:14:39.029Z,1022.12
2018-06-24T10:15:47.893Z,1022.14
2018-06-24T10:16:56.756Z,1022.08
2018-06-24T10:18:05.621Z,1022.07
2018-06-24T10:19:14.911Z,1022.05
2018-06-24T10:20:23.770Z,1022.07
2018-06-24T10:21:32.631Z,1022.06
2018-06-24T10:22:41.764Z,1022.08
2018-06-24T10:23:50.623Z,1022.01
2018-06-24T10:24:59.838Z,1022.05
2018-06-24T10:26:08.699Z,1021.99
2018-06-24T10:27:17.848Z,1021.94
2018-06-24T10:28:26.713Z,1021.95
2018-06-24T10:29:35.581Z,1021.88
2018-06-24T10:30:44.817Z,1021.92
2018-06-24T10:31:53.955Z,1021.98
2018-06-24T10:33:03.091Z,1021.95
2018-06-24T10:34:11.956Z,1021.94
2018-06-24T10:35:20.822Z,1022
2018-06-24T10:36:29.780Z,1021.98
2018-06-24T10:37:38.641Z,1022.02
2018-06-24T10:38:47.500Z,1022.04
2018-06-24T10:39:56.360Z,1022.03
2018-06-24T10:41:05.250Z,1022.01
2018-06-24T10:42:14.891Z,1022.03
2018-06-24T10:43:23.752Z,1021.99
2018-06-24T10:44:32.614Z,1022.01
2018-06-24T10:45:41.477Z,1022
2018-06-24T10:46:50.339Z,1021.97
2018-06-24T10:47:59.248Z,1022.03
2018-06-24T10:49:08.111Z,1021.89
2018-06-24T10:50:16.977Z,1021.97
2018-06-24T10:51:26.124Z,1021.98
2018-06-24T10:52:34.983Z,1021.95
2018-06-24T10:53:43.843Z,1021.93
2018-06-24T10:54:52.992Z,1021.91
2018-06-24T10:56:01.869Z,1021.98
2018-06-24T10:57:10.716Z,1021.9
2018-06-24T10:58:19.581Z,1021.94
2018-06-24T10:59:28.444Z,1021.95
2018-06-24T11:00:37.308Z,1021.98
2018-06-24T11:01:46.169Z,1021.92
2018-06-24T11:02:55.035Z,1021.9
2018-06-24T11:04:04.180Z,1021.93
2018-06-24T11:05:13.139Z,1022.05
2018-06-24T11:06:22.002Z,1021.98
2018-06-24T11:07:30.863Z,1022.02
2018-06-24T11:08:39.725Z,1022.04
2018-06-24T11:09:48.905Z,1022.18
2018-06-24T11:10:58.604Z,1022.08
2018-06-24T11:12:07.745Z,1022.05
2018-06-24T11:13:16.888Z,1022.09
2018-06-24T11:14:25.748Z,1022.02
2018-06-24T11:15:34.612Z,1022.02
2018-06-24T11:16:43.526Z,1021.99
2018-06-24T11:17:52.670Z,1021.96
2018-06-24T11:19:01.529Z,1021.88
2018-06-24T11:20:10.391Z,1021.93
2018-06-24T11:21:19.254Z,1021.91
2018-06-24T11:22:28.118Z,1021.87
2018-06-24T11:23:36.982Z,1021.94
2018-06-24T11:24:46.123Z,1021.97
2018-06-24T11:25:54.986Z,1022.02
2018-06-24T11:27:03.849Z,1021.96
2018-06-24T11:28:12.759Z,1021.98
2018-06-24T11:29:21.621Z,1021.94
2018-06-24T11:30:30.480Z,1022.06
2018-06-24T11:31:39.348Z,1021.98
2018-06-24T11:32:48.208Z,1022.01
2018-06-24T11:33:57.499Z,1021.93
2018-06-24T11:35:06.636Z,1021.91
2018-06-24T11:36:15.499Z,1021.9
2018-06-24T11:37:24.361Z,1021.89
2018-06-24T11:38:33.222Z,1021.85
2018-06-24T11:39:42.512Z,1021.79
2018-06-24T11:40:51.374Z,1021.82
2018-06-24T11:42:00.510Z,1021.72
2018-06-24T11:43:09.375Z,1021.74
2018-06-24T11:44:18.240Z,1021.91
2018-06-24T11:45:27.491Z,1021.94
2018-06-24T11:46:36.352Z,1021.9
2018-06-24T11:47:45.506Z,1021.84
2018-06-24T11:48:54.355Z,1021.89
2018-06-24T11:50:03.217Z,1021.99
2018-06-24T11:51:12.179Z,1021.93
2018-06-24T11:52:21.328Z,1021.9
2018-06-24T11:53:30.190Z,1021.96
2018-06-24T11:54:39.049Z,1021.92
2018-06-24T11:55:47.910Z,1021.97
2018-06-24T11:56:56.815Z,1021.92
2018-06-24T11:58:06.066Z,1021.96
2018-06-24T11:59:14.928Z,1021.89
2018-06-24T12:00:23.791Z,1021.89
2018-06-24T12:01:32.652Z,1021.86
2018-06-24T12:02:41.631Z,1021.82
2018-06-24T12:03:51.264Z,1021.79
2018-06-24T12:05:00.124Z,1021.73
2018-06-24T12:06:09.264Z,1021.83
2018-06-24T12:07:18.125Z,1021.79
2018-06-24T12:08:27.769Z,1021.77
2018-06-24T12:09:36.910Z,1021.77
2018-06-24T12:10:45.786Z,1021.73
2018-06-24T12:11:54.636Z,1021.74
2018-06-24T12:13:03.501Z,1021.77
2018-06-24T12:14:12.792Z,1021.8
2018-06-24T12:15:21.657Z,1021.8
2018-06-24T12:16:30.520Z,1021.73
2018-06-24T12:17:39.378Z,1021.75
2018-06-24T12:18:48.240Z,1021.79
2018-06-24T12:19:57.460Z,1021.83
2018-06-24T12:21:06.326Z,1021.92
2018-06-24T12:22:15.461Z,1021.92
2018-06-24T12:23:24.329Z,1021.79
2018-06-24T12:24:33.193Z,1021.82
2018-06-24T12:25:42.334Z,1021.78
2018-06-24T12:26:51.197Z,1021.81
2018-06-24T12:28:00.059Z,1021.78
2018-06-24T12:29:08.920Z,1021.75
2018-06-24T12:30:17.783Z,1021.77
2018-06-24T12:31:26.796Z,1021.78
2018-06-24T12:32:35.660Z,1021.78
2018-06-24T12:33:44.522Z,1021.77
2018-06-24T12:34:53.388Z,1021.71
2018-06-24T12:36:02.249Z,1021.64
2018-06-24T12:37:11.211Z,1021.74
2018-06-24T12:38:20.075Z,1021.63
2018-06-24T12:39:28.940Z,1021.72
2018-06-24T12:40:37.800Z,1021.69
2018-06-24T12:41:46.942Z,1021.71
2018-06-24T12:42:56.175Z,1021.76
2018-06-24T12:44:05.630Z,1021.68
2018-06-24T12:45:14.493Z,1021.73
2018-06-24T12:46:23.632Z,1021.68
2018-06-24T12:47:32.497Z,1021.65
2018-06-24T12:48:41.362Z,1021.6
2018-06-24T12:49:50.224Z,1021.57
2018-06-24T12:50:59.087Z,1021.61
2018-06-24T12:52:07.953Z,1021.65
2018-06-24T12:53:16.822Z,1021.68
2018-06-24T12:54:26.238Z,1021.75
2018-06-24T12:55:35.098Z,1021.73
2018-06-24T12:56:43.961Z,1021.72
2018-06-24T12:57:53.110Z,1021.63
2018-06-24T12:59:02.166Z,1021.6
2018-06-24T13:00:11.192Z,1021.63
2018-06-24T13:01:20.752Z,1021.62
2018-06-24T13:02:29.613Z,1021.61
2018-06-24T13:03:38.472Z,1021.61
2018-06-24T13:04:47.331Z,1021.67
2018-06-24T13:05:56.547Z,1021.64
2018-06-24T13:07:05.467Z,1021.63
2018-06-24T13:08:14.555Z,1021.66
2018-06-24T13:09:23.415Z,1021.63
2018-06-24T13:10:32.562Z,1021.61
2018-06-24T13:11:41.524Z,1021.64
2018-06-24T13:12:50.665Z,1021.62
2018-06-24T13:13:59.524Z,1021.58
2018-06-24T13:15:08.389Z,1021.61
2018-06-24T13:16:17.253Z,1021.54
2018-06-24T13:17:26.163Z,1021.56
2018-06-24T13:18:35.031Z,1021.48
2018-06-24T13:19:43.895Z,1021.49
2018-06-24T13:20:52.757Z,1021.45
2018-06-24T13:22:01.895Z,1021.48
2018-06-24T13:23:10.809Z,1021.45
2018-06-24T13:24:19.949Z,1021.45
2018-06-24T13:25:28.813Z,1021.5
2018-06-24T13:26:37.712Z,1021.5
2018-06-24T13:27:46.541Z,1021.44
2018-06-24T13:28:55.551Z,1021.46
2018-06-24T13:30:04.694Z,1021.43
2018-06-24T13:31:13.554Z,1021.51
2018-06-24T13:32:22.419Z,1021.5
2018-06-24T13:33:31.282Z,1021.49
2018-06-24T13:34:40.496Z,1021.48
2018-06-24T13:35:49.358Z,1021.46
2018-06-24T13:36:58.218Z,1021.47
2018-06-24T13:38:07.080Z,1021.43
2018-06-24T13:39:16.218Z,1021.46
2018-06-24T13:40:25.162Z,1021.45
2018-06-24T13:41:33.989Z,1021.44
2018-06-24T13:42:42.851Z,1021.46
2018-06-24T13:43:51.716Z,1021.45
2018-06-24T13:45:00.576Z,1021.43
2018-06-24T13:46:10.066Z,1021.47
2018-06-24T13:47:18.929Z,1021.41
2018-06-24T13:48:27.789Z,1021.38
2018-06-24T13:49:36.650Z,1021.43
2018-06-24T13:50:45.515Z,1021.47
2018-06-24T13:51:55.028Z,1021.41
2018-06-24T13:53:03.896Z,1021.39
2018-06-24T13:54:13.032Z,1021.46
2018-06-24T13:55:21.893Z,1021.41
2018-06-24T13:56:30.756Z,1021.47
2018-06-24T13:57:39.963Z,1021.46